createdAt,value
2018-09-03T00:01:12.092Z,17.47
2018-09-03T00:03:41.299Z,17.90
2018-09-03T00:06:10.629Z,17.67
2018-09-03T00:08:39.703Z,16.93
2018-09-03T00:11:08.944Z,17.23
2018-09-03T00:13:38.125Z,17.23
2018-09-03T00:16:07.524Z,17.57
2018-09-03T00:18:36.361Z,18.60
2018-09-03T00:21:05.417Z,19.40
2018-09-03T00:23:34.883Z,19.83
2018-09-03T00:26:04.166Z,22.07
2018-09-03T00:28:33.308Z,21.30
2018-09-03T00:31:07.598Z,20.33
2018-09-03T00:33:41.824Z,24.13
2018-09-03T00:36:15.859Z,27.93
2018-09-03T00:38:49.764Z,28.07
2018-09-03T00:41:24.383Z,29.47
2018-09-03T00:43:58.668Z,34.13
2018-09-03T00:46:32.786Z,35.63
2018-09-03T00:49:02.079Z,37.30
2018-09-03T00:51:31.463Z,40.70
2018-09-03T00:54:00.555Z,41.23
2018-09-03T00:56:29.791Z,44.67
2018-09-03T00:58:58.612Z,45.83
2018-09-03T01:01:27.594Z,45.63
2018-09-03T01:03:56.572Z,47.40
2018-09-03T01:06:26.152Z,47.73
2018-09-03T01:08:55.301Z,47.90
2018-09-03T01:11:26.412Z,46.63
2018-09-03T01:13:56.807Z,46.13
2018-09-03T01:16:25.733Z,46.63
2018-09-03T01:18:56.024Z,45.40
2018-09-03T01:21:26.304Z,43.73
2018-09-03T01:23:55.756Z,43.57
2018-09-03T01:26:25.148Z,43.60
2018-09-03T01:28:54.308Z,40.67
2018-09-03T01:31:23.285Z,40.57
2018-09-03T01:33:53.457Z,39.10
2018-09-03T01:36:23.028Z,38.20
2018-09-03T01:38:51.904Z,38.60
2018-09-03T01:41:21.182Z,35.40
2018-09-03T01:43:50.460Z,35.90
2018-09-03T01:46:19.824Z,34.40
2018-09-03T01:48:49.144Z,31.57
2018-09-03T01:51:18.440Z,33.23
2018-09-03T01:53:47.948Z,31.67
2018-09-03T01:56:17.169Z,32.93
2018-09-03T01:58:46.365Z,31.40
2018-09-03T02:01:15.496Z,31.43
2018-09-03T02:03:45.054Z,30.17
2018-09-03T02:06:14.273Z,30.97
2018-09-03T02:08:43.335Z,29.10
2018-09-03T02:11:12.637Z,28.60
2018-09-03T02:13:41.637Z,27.77
2018-09-03T02:16:11.063Z,26.73
2018-09-03T02:18:40.497Z,26.73
2018-09-03T02:21:10.110Z,25.27
2018-09-03T02:23:39.571Z,26.10
2018-09-03T02:26:08.387Z,22.90
2018-09-03T02:28:37.680Z,22.13
2018-09-03T02:31:06.526Z,19.17
2018-09-03T02:33:35.931Z,20.20
2018-09-03T02:36:05.060Z,19.13
2018-09-03T02:38:33.952Z,18.70
2018-09-03T02:41:03.444Z,18.20
2018-09-03T02:43:32.451Z,18.43
2018-09-03T02:46:01.648Z,18.57
2018-09-03T02:48:30.635Z,17.97
2018-09-03T02:50:59.891Z,17.30
2018-09-03T02:53:29.280Z,17.10
2018-09-03T02:55:58.641Z,16.00
2018-09-03T02:58:27.742Z,15.83
2018-09-03T03:00:56.777Z,16.70
2018-09-03T03:03:25.796Z,16.10
2018-09-03T03:05:55.046Z,15.73
2018-09-03T03:08:24.242Z,16.43
2018-09-03T03:10:53.097Z,19.80
2018-09-03T03:13:22.088Z,20.37
2018-09-03T03:15:50.984Z,21.33
2018-09-03T03:18:19.841Z,22.80
2018-09-03T03:20:48.736Z,25.70
2018-09-03T03:23:17.817Z,24.30
2018-09-03T03:25:47.132Z,25.93
2018-09-03T03:28:16.007Z,26.30
2018-09-03T03:30:45.061Z,28.47
2018-09-03T03:33:14.548Z,27.80
2018-09-03T03:35:43.880Z,31.50
2018-09-03T03:38:12.905Z,27.83
2018-09-03T03:40:42.201Z,42.30
2018-09-03T03:43:11.504Z,41.53
2018-09-03T03:45:40.998Z,39.00
2018-09-03T03:48:10.328Z,27.27
2018-09-03T03:50:39.717Z,40.40
2018-09-03T03:53:09.209Z,28.83
2018-09-03T03:55:38.089Z,28.80
2018-09-03T03:58:07.368Z,25.67
2018-09-03T04:00:36.512Z,25.57
2018-09-03T04:03:05.708Z,23.77
2018-09-03T04:05:35.078Z,24.63
2018-09-03T04:20:46.276Z,21.55
2018-09-03T04:23:15.854Z,21.10
2018-09-03T04:25:44.823Z,21.73
2018-09-03T04:28:15.474Z,22.07
2018-09-03T04:30:44.738Z,23.17
2018-09-03T04:33:13.771Z,23.20
2018-09-03T04:35:42.840Z,27.30
2018-09-03T04:38:11.665Z,22.73
2018-09-03T04:40:40.688Z,24.70
2018-09-03T04:43:09.615Z,24.63
2018-09-03T04:45:39.000Z,24.73
2018-09-03T04:48:08.028Z,22.87
2018-09-03T04:50:37.260Z,24.23
2018-09-03T04:53:06.443Z,24.73
2018-09-03T04:55:35.901Z,24.80
2018-09-03T04:58:04.893Z,24.90
2018-09-03T05:00:34.003Z,21.87
2018-09-03T05:03:03.309Z,21.23
2018-09-03T05:05:32.256Z,21.77
2018-09-03T05:08:01.676Z,20.63
2018-09-03T05:10:30.706Z,20.57
2018-09-03T05:13:00.085Z,19.93
2018-09-03T05:15:29.072Z,18.47
2018-09-03T05:17:58.096Z,19.40
2018-09-03T05:20:27.087Z,17.60
2018-09-03T05:22:56.968Z,19.00
2018-09-03T05:25:26.131Z,17.17
2018-09-03T05:27:54.976Z,17.70
2018-09-03T05:30:23.844Z,16.90
2018-09-03T05:32:52.773Z,19.30
2018-09-03T05:35:21.680Z,17.37
2018-09-03T05:37:50.604Z,17.57
2018-09-03T05:40:19.607Z,16.20
2018-09-03T05:42:48.460Z,17.37
2018-09-03T05:45:17.499Z,15.03
2018-09-03T05:47:46.347Z,15.80
2018-09-03T05:50:15.365Z,16.97
2018-09-03T05:52:44.365Z,16.53
2018-09-03T05:55:13.592Z,16.27
2018-09-03T05:57:42.500Z,16.27
2018-09-03T06:00:11.702Z,16.00
2018-09-03T06:02:40.732Z,15.53
2018-09-03T06:05:10.150Z,14.00
2018-09-03T06:07:40.343Z,14.00
2018-09-03T06:10:09.247Z,14.87
2018-09-03T06:12:38.871Z,14.73
2018-09-03T06:15:07.852Z,15.10
2018-09-03T06:17:36.771Z,16.90
2018-09-03T06:20:06.242Z,14.67
2018-09-03T06:22:35.233Z,13.93
2018-09-03T06:25:04.496Z,32.70
2018-09-03T06:27:33.340Z,19.10
2018-09-03T06:30:02.327Z,15.20
2018-09-03T06:32:31.292Z,14.23
2018-09-03T06:35:00.237Z,14.77
2018-09-03T06:37:29.141Z,14.73
2018-09-03T06:39:58.124Z,14.30
2018-09-03T06:42:26.975Z,14.33
2018-09-03T06:44:55.961Z,17.40
2018-09-03T06:47:25.265Z,17.40
2018-09-03T06:49:54.168Z,13.03
2018-09-03T06:52:23.149Z,13.77
2018-09-03T06:54:52.015Z,13.80
2018-09-03T06:57:21.444Z,13.77
2018-09-03T06:59:50.453Z,13.77
2018-09-03T07:02:19.447Z,13.30
2018-09-03T07:04:48.459Z,13.40
2018-09-03T07:07:17.784Z,13.30
2018-09-03T07:09:47.069Z,15.17
2018-09-03T07:12:16.149Z,15.03
2018-09-03T07:14:45.144Z,14.80
2018-09-03T07:17:14.309Z,14.83
2018-09-03T07:19:43.176Z,14.27
2018-09-03T07:22:12.368Z,14.80
2018-09-03T07:24:41.651Z,13.00
2018-09-03T07:27:10.889Z,13.97
2018-09-03T07:29:40.109Z,13.80
2018-09-03T07:32:09.436Z,12.47
2018-09-03T07:34:38.251Z,11.33
2018-09-03T07:37:07.383Z,12.17
2018-09-03T07:39:36.436Z,11.70
2018-09-03T07:42:05.419Z,11.00
2018-09-03T07:44:34.376Z,10.07
2018-09-03T07:47:03.376Z,10.83
2018-09-03T07:49:32.371Z,10.77
2018-09-03T07:52:01.490Z,10.80
2018-09-03T07:54:30.657Z,11.00
2018-09-03T07:56:59.523Z,10.20
2018-09-03T07:59:28.854Z,10.90
2018-09-03T08:01:57.708Z,12.23
2018-09-03T08:04:27.141Z,11.10
2018-09-03T08:06:56.129Z,11.13
2018-09-03T08:09:25.031Z,11.30
2018-09-03T08:11:54.016Z,10.73
2018-09-03T08:14:22.855Z,11.00
2018-09-03T08:16:52.062Z,10.83
2018-09-03T08:19:21.324Z,12.17
2018-09-03T08:21:50.762Z,11.33
2018-09-03T08:24:20.145Z,10.97
2018-09-03T08:26:49.481Z,10.80
2018-09-03T08:29:18.547Z,11.80
2018-09-03T08:31:47.901Z,11.30
2018-09-03T08:34:16.777Z,11.20
2018-09-03T08:36:45.812Z,11.30
2018-09-03T08:39:14.836Z,10.53
2018-09-03T08:41:43.873Z,9.57
2018-09-03T08:44:13.197Z,9.70
2018-09-03T08:46:42.165Z,10.33
2018-09-03T08:49:11.404Z,9.97
2018-09-03T08:51:40.211Z,10.80
2018-09-03T08:54:09.425Z,9.53
2018-09-03T08:56:38.797Z,10.00
2018-09-03T08:59:08.161Z,10.50
2018-09-03T09:01:37.389Z,10.13
2018-09-03T09:04:06.650Z,9.97
2018-09-03T09:06:35.812Z,10.90
2018-09-03T09:09:06.378Z,10.80
2018-09-03T09:11:35.342Z,10.27
2018-09-03T09:14:04.317Z,9.73
2018-09-03T09:16:33.709Z,10.10
2018-09-03T09:19:02.785Z,10.37
2018-09-03T09:21:32.156Z,9.00
2018-09-03T09:24:01.556Z,8.97
2018-09-03T09:26:30.979Z,8.33
2018-09-03T09:28:59.983Z,9.00
2018-09-03T09:31:29.087Z,10.83
2018-09-03T09:33:58.245Z,8.93
2018-09-03T09:36:27.198Z,8.90
2018-09-03T09:38:56.173Z,9.00
2018-09-03T09:41:25.494Z,9.30
2018-09-03T09:43:54.712Z,8.23
2018-09-03T09:46:23.810Z,8.47
2018-09-03T09:48:52.944Z,9.37
2018-09-03T09:51:22.359Z,8.97
2018-09-03T09:53:51.314Z,9.50
2018-09-03T09:56:20.709Z,8.87
2018-09-03T09:58:49.615Z,8.47
2018-09-03T10:01:23.679Z,8.60
2018-09-03T10:03:53.080Z,9.00
2018-09-03T10:06:22.325Z,9.40
2018-09-03T10:08:51.508Z,9.57
2018-09-03T10:11:20.439Z,8.20
2018-09-03T10:13:49.850Z,9.47
2018-09-03T10:16:18.879Z,9.20
2018-09-03T10:18:48.197Z,8.87
2018-09-03T10:21:17.397Z,8.40
2018-09-03T10:23:46.548Z,8.83
2018-09-03T10:26:15.832Z,8.50
2018-09-03T10:28:45.056Z,8.27
2018-09-03T10:31:14.275Z,8.43
2018-09-03T10:33:43.514Z,8.90
2018-09-03T10:36:12.994Z,9.30
2018-09-03T10:38:41.911Z,9.53
2018-09-03T10:41:11.150Z,8.93
2018-09-03T10:43:40.226Z,9.73
2018-09-03T10:46:09.244Z,9.53
2018-09-03T10:48:38.456Z,8.33
2018-09-03T10:51:07.444Z,10.13
2018-09-03T10:53:36.409Z,9.30
2018-09-03T10:56:05.556Z,8.20
2018-09-03T10:58:34.632Z,9.80
2018-09-03T11:01:03.497Z,8.50
2018-09-03T11:03:32.593Z,9.07
2018-09-03T11:06:01.525Z,9.43
2018-09-03T11:08:30.532Z,9.00
2018-09-03T11:10:59.391Z,9.07
2018-09-03T11:13:28.657Z,9.57
2018-09-03T11:15:57.824Z,9.60
2018-09-03T11:18:28.604Z,8.83
2018-09-03T11:20:57.968Z,9.00
2018-09-03T11:23:27.169Z,9.27
2018-09-03T11:25:56.353Z,8.20
2018-09-03T11:28:25.364Z,8.53
2018-09-03T11:30:54.856Z,9.13
2018-09-03T11:33:24.196Z,8.20
2018-09-03T11:35:53.514Z,8.13
2018-09-03T11:38:22.613Z,8.10
2018-09-03T11:40:51.682Z,7.87
2018-09-03T11:43:20.875Z,8.63
2018-09-03T11:45:49.935Z,8.37
2018-09-03T11:48:19.146Z,8.53
2018-09-03T11:50:48.195Z,9.53
2018-09-03T11:53:17.144Z,7.97
2018-09-03T11:55:46.343Z,8.40
2018-09-03T11:58:15.300Z,8.30
2018-09-03T12:00:44.284Z,8.47
2018-09-03T12:03:13.153Z,9.13
2018-09-03T12:05:42.148Z,9.93
2018-09-03T12:08:11.179Z,8.50
2018-09-03T12:10:40.411Z,8.30
2018-09-03T12:13:09.855Z,9.37
2018-09-03T12:15:42.172Z,8.30
2018-09-03T12:18:11.438Z,8.70
2018-09-03T12:20:40.293Z,8.03
2018-09-03T12:23:09.272Z,8.37
2018-09-03T12:25:38.466Z,7.83
2018-09-03T12:28:07.249Z,9.00
2018-09-03T12:30:36.121Z,7.77
2018-09-03T12:33:05.011Z,8.40
2018-09-03T12:35:34.752Z,8.30
2018-09-03T12:38:03.716Z,8.50
2018-09-03T12:40:32.688Z,9.03
2018-09-03T12:43:01.661Z,7.67
2018-09-03T12:45:35.570Z,7.67
2018-09-03T12:48:04.484Z,7.37
2018-09-03T12:50:33.432Z,8.77
2018-09-03T12:53:02.359Z,8.90
2018-09-03T12:55:31.340Z,8.10
2018-09-03T12:58:00.222Z,7.47
2018-09-03T13:00:29.051Z,8.27
2018-09-03T13:02:58.056Z,7.20
2018-09-03T13:05:26.980Z,6.90
2018-09-03T13:07:55.900Z,7.10
2018-09-03T13:10:25.030Z,7.10
2018-09-03T13:12:53.864Z,7.07
2018-09-03T13:15:22.694Z,8.70
2018-09-03T13:17:51.911Z,7.30
2018-09-03T13:20:21.084Z,6.53
2018-09-03T13:22:50.185Z,7.00
2018-09-03T13:25:19.413Z,6.97
2018-09-03T13:27:48.584Z,7.10
2018-09-03T13:30:17.790Z,7.10
2018-09-03T13:32:46.680Z,7.13
2018-09-03T13:35:15.575Z,6.83
2018-09-03T13:37:45.012Z,6.60
2018-09-03T13:40:13.990Z,6.37
2018-09-03T13:42:42.993Z,6.87
2018-09-03T13:45:12.198Z,6.50
2018-09-03T13:47:41.085Z,7.33
2018-09-03T13:50:10.128Z,6.63
2018-09-03T13:52:39.283Z,7.53
2018-09-03T13:55:08.513Z,7.93
2018-09-03T13:57:37.412Z,7.10
2018-09-03T14:00:07.385Z,7.07
2018-09-03T14:02:36.720Z,7.43
2018-09-03T14:05:05.606Z,7.90
2018-09-03T14:07:34.584Z,6.67
2018-09-03T14:10:03.655Z,6.20
2018-09-03T14:12:33.053Z,7.03
2018-09-03T14:15:02.026Z,7.00
2018-09-03T14:17:31.179Z,6.23
2018-09-03T14:20:00.139Z,6.90
2018-09-03T14:22:29.188Z,7.37
2018-09-03T14:24:58.245Z,6.73
2018-09-03T14:27:27.360Z,6.70
2018-09-03T14:29:56.274Z,7.10
2018-09-03T14:32:25.326Z,6.43
2018-09-03T14:34:54.385Z,6.30
2018-09-03T14:37:23.338Z,6.83
2018-09-03T14:39:52.389Z,6.83
2018-09-03T14:42:21.419Z,6.60
2018-09-03T14:44:50.482Z,6.83
2018-09-03T14:47:19.586Z,5.73
2018-09-03T14:49:48.736Z,7.23
2018-09-03T14:52:17.781Z,7.20
2018-09-03T14:54:47.281Z,6.40
2018-09-03T14:57:16.314Z,6.30
2018-09-03T14:59:45.895Z,7.37
2018-09-03T15:02:15.272Z,6.77
2018-09-03T15:04:44.458Z,6.23
2018-09-03T15:07:13.663Z,7.57
2018-09-03T15:09:42.825Z,7.07
2018-09-03T15:12:11.745Z,7.63
2018-09-03T15:14:41.176Z,7.97
2018-09-03T15:17:10.598Z,8.10
2018-09-03T15:19:40.102Z,9.47
2018-09-03T15:22:09.340Z,9.00
2018-09-03T15:24:38.278Z,9.00
2018-09-03T15:27:07.594Z,9.57
2018-09-03T15:29:36.962Z,9.20
2018-09-03T15:32:06.474Z,9.60
2018-09-03T15:34:35.773Z,8.40
2018-09-03T15:37:05.243Z,9.77
2018-09-03T15:39:34.313Z,11.10
2018-09-03T15:42:03.623Z,9.70
2018-09-03T15:44:33.494Z,10.10
2018-09-03T15:47:02.963Z,8.73
2018-09-03T15:49:32.326Z,9.57
2018-09-03T15:52:01.725Z,10.33
2018-09-03T15:54:30.818Z,8.73
2018-09-03T15:56:59.992Z,8.33
2018-09-03T15:59:29.029Z,8.43
2018-09-03T16:01:58.100Z,11.23
2018-09-03T16:04:27.142Z,10.30
2018-09-03T16:06:56.174Z,10.27
2018-09-03T16:09:25.402Z,10.40
2018-09-03T16:11:54.792Z,10.63
2018-09-03T16:14:23.904Z,13.70
2018-09-03T16:16:52.745Z,10.97
2018-09-03T16:19:22.023Z,11.10
2018-09-03T16:21:51.255Z,13.03
2018-09-03T16:24:20.179Z,10.47
2018-09-03T16:26:49.451Z,9.30
2018-09-03T16:29:18.691Z,10.37
2018-09-03T16:31:47.963Z,10.97
2018-09-03T16:34:17.441Z,11.87
2018-09-03T16:36:46.287Z,9.83
2018-09-03T16:39:15.107Z,10.97
2018-09-03T16:41:44.426Z,10.93
2018-09-03T16:44:13.776Z,10.83
2018-09-03T16:46:42.988Z,12.37
2018-09-03T16:49:12.499Z,10.17
2018-09-03T16:51:41.603Z,10.70
2018-09-03T16:54:10.900Z,10.97
2018-09-03T16:56:39.900Z,11.03
2018-09-03T16:59:08.886Z,11.33
2018-09-03T17:01:38.263Z,9.73
2018-09-03T17:04:07.524Z,10.00
2018-09-03T17:06:36.564Z,9.00
2018-09-03T17:09:06.328Z,9.83
2018-09-03T17:11:35.361Z,9.30
2018-09-03T17:14:04.624Z,10.60
2018-09-03T17:16:34.019Z,10.03
2018-09-03T17:19:02.987Z,10.77
2018-09-03T17:21:31.898Z,9.93
2018-09-03T17:24:01.284Z,10.70
2018-09-03T17:26:30.649Z,10.00
2018-09-03T17:28:59.748Z,10.03
2018-09-03T17:31:28.727Z,9.33
2018-09-03T17:33:57.575Z,10.27
2018-09-03T17:36:26.483Z,10.63
2018-09-03T17:38:55.476Z,9.77
2018-09-03T17:41:24.331Z,10.57
2018-09-03T17:43:53.275Z,11.67
2018-09-03T17:46:22.193Z,10.57
2018-09-03T17:48:51.623Z,11.87
2018-09-03T17:51:20.471Z,9.03
2018-09-03T17:53:49.291Z,10.53
2018-09-03T17:56:18.260Z,10.27
2018-09-03T17:58:47.288Z,10.43
2018-09-03T18:01:16.340Z,9.27
2018-09-03T18:03:46.343Z,10.57
2018-09-03T18:06:15.476Z,10.27
2018-09-03T18:08:44.587Z,9.53
2018-09-03T18:11:14.049Z,10.20
2018-09-03T18:13:43.035Z,9.70
2018-09-03T18:16:11.934Z,9.17
2018-09-03T18:18:40.928Z,10.03
2018-09-03T18:21:10.228Z,8.37
2018-09-03T18:23:39.683Z,9.57
2018-09-03T18:26:08.708Z,8.30
2018-09-03T18:28:37.562Z,9.33
2018-09-03T18:31:06.450Z,9.13
2018-09-03T18:33:35.508Z,8.23
2018-09-03T18:36:04.388Z,8.43
2018-09-03T18:38:33.967Z,9.47
2018-09-03T18:41:02.929Z,10.23
2018-09-03T18:43:33.078Z,9.53
2018-09-03T18:46:02.253Z,8.60
2018-09-03T18:48:31.701Z,9.70
2018-09-03T18:51:01.031Z,9.13
2018-09-03T18:53:30.013Z,8.37
2018-09-03T18:55:58.843Z,9.77
2018-09-03T18:58:28.294Z,8.23
2018-09-03T19:00:57.615Z,9.50
2018-09-03T19:03:26.792Z,9.03
2018-09-03T19:05:56.114Z,8.90
2018-09-03T19:08:25.632Z,9.00
2018-09-03T19:10:55.188Z,9.13
2018-09-03T19:13:24.304Z,9.07
2018-09-03T19:15:53.288Z,7.83
2018-09-03T19:18:22.276Z,9.50
2018-09-03T19:20:51.387Z,8.87
2018-09-03T19:23:20.670Z,9.13
2018-09-03T19:25:49.565Z,8.67
2018-09-03T19:28:18.467Z,9.63
2018-09-03T19:30:47.384Z,9.63
2018-09-03T19:33:16.382Z,9.50
2018-09-03T19:35:45.346Z,9.17
2018-09-03T19:38:14.413Z,9.03
2018-09-03T19:40:43.252Z,10.00
2018-09-03T19:43:12.280Z,9.00
2018-09-03T19:45:41.298Z,9.43
2018-09-03T19:48:10.228Z,10.27
2018-09-03T19:50:39.321Z,8.83
2018-09-03T19:53:08.305Z,9.83
2018-09-03T19:55:37.235Z,9.97
2018-09-03T19:58:06.414Z,8.43
2018-09-03T20:00:35.490Z,9.67
2018-09-03T20:03:04.549Z,9.40
2018-09-03T20:05:33.664Z,10.23
2018-09-03T20:08:02.476Z,9.27
2018-09-03T20:10:31.433Z,9.37
2018-09-03T20:13:00.435Z,9.53
2018-09-03T20:15:29.360Z,8.60
2018-09-03T20:17:58.213Z,8.97
2018-09-03T20:20:27.147Z,10.07
2018-09-03T20:22:56.192Z,9.07
2018-09-03T20:25:25.109Z,8.83
2018-09-03T20:27:54.130Z,18.73
2018-09-03T20:30:23.305Z,9.83
2018-09-03T20:32:52.510Z,8.77
2018-09-03T20:35:21.536Z,8.77
2018-09-03T20:37:50.452Z,8.90
2018-09-03T20:40:19.304Z,9.00
2018-09-03T20:42:48.270Z,9.27
2018-09-03T20:45:17.360Z,8.97
2018-09-03T20:47:46.344Z,9.67
2018-09-03T20:50:15.621Z,8.70
2018-09-03T20:52:44.908Z,8.37
2018-09-03T20:55:14.292Z,9.30
2018-09-03T20:57:43.144Z,8.63
2018-09-03T21:00:12.608Z,8.90
2018-09-03T21:02:41.783Z,9.17
2018-09-03T21:05:10.883Z,9.20
2018-09-03T21:07:40.124Z,9.60
2018-09-03T21:10:08.986Z,9.00
2018-09-03T21:12:38.297Z,9.90
2018-09-03T21:15:07.520Z,9.20
2018-09-03T21:17:36.391Z,8.87
2018-09-03T21:20:05.964Z,8.83
2018-09-03T21:22:34.839Z,9.00
2018-09-03T21:25:03.912Z,9.13
2018-09-03T21:27:33.237Z,9.00
2018-09-03T21:30:02.484Z,8.77
2018-09-03T21:32:31.387Z,8.40
2018-09-03T21:35:00.812Z,7.60
2018-09-03T21:37:29.959Z,8.73
2018-09-03T21:39:59.093Z,9.30
2018-09-03T21:42:28.376Z,8.83
2018-09-03T21:44:57.511Z,9.30
2018-09-03T21:47:26.900Z,9.17
2018-09-03T21:49:56.040Z,9.30
2018-09-03T21:52:25.448Z,9.23
2018-09-03T21:54:54.382Z,8.47
2018-09-03T21:57:23.304Z,9.10
2018-09-03T21:59:52.749Z,9.77
2018-09-03T22:02:22.011Z,9.40
2018-09-03T22:04:50.839Z,8.67
2018-09-03T22:07:20.064Z,8.47
2018-09-03T22:09:49.432Z,14.10
2018-09-03T22:12:18.624Z,9.80
2018-09-03T22:14:47.975Z,8.70
2018-09-03T22:17:18.069Z,9.63
2018-09-03T22:19:47.167Z,8.90
2018-09-03T22:22:16.439Z,8.43
2018-09-03T22:24:45.615Z,8.87
2018-09-03T22:27:14.731Z,8.10
2018-09-03T22:29:44.117Z,8.13
2018-09-03T22:32:13.108Z,9.23
2018-09-03T22:34:42.047Z,9.10
2018-09-03T22:37:10.964Z,8.63
2018-09-03T22:39:39.991Z,8.33
2018-09-03T22:42:09.263Z,8.10
2018-09-03T22:44:38.287Z,8.40
2018-09-03T22:47:07.464Z,8.77
2018-09-03T22:49:36.733Z,7.60
2018-09-03T22:52:05.987Z,8.43
2018-09-03T22:54:34.947Z,8.67
2018-09-03T22:57:04.099Z,9.37
2018-09-03T22:59:33.336Z,8.20
2018-09-03T23:02:02.647Z,10.80
2018-09-03T23:04:31.768Z,12.10
2018-09-03T23:07:00.640Z,10.67
2018-09-03T23:09:29.668Z,9.80
2018-09-03T23:11:59.128Z,10.63
2018-09-03T23:14:28.302Z,9.70
2018-09-03T23:16:57.710Z,8.83
2018-09-03T23:19:26.639Z,9.77
2018-09-03T23:21:55.687Z,9.70
2018-09-03T23:24:24.908Z,10.33
2018-09-03T23:26:53.883Z,10.80
2018-09-03T23:29:22.763Z,9.93
2018-09-03T23:31:51.664Z,10.70
2018-09-03T23:34:20.844Z,11.50
2018-09-03T23:36:50.309Z,11.93
2018-09-03T23:39:19.292Z,11.30
2018-09-03T23:41:48.268Z,11.53
2018-09-03T23:44:17.711Z,11.60
2018-09-03T23:46:46.831Z,12.27
2018-09-03T23:49:15.681Z,11.73
2018-09-03T23:51:44.912Z,13.13
2018-09-03T23:54:13.909Z,12.80
2018-09-03T23:56:42.904Z,12.70
2018-09-03T23:59:12.225Z,13.57
